Monday, January 26, 2015

  Over 48,494,314 pages visited!

GMT:
18:23
PACIFIC:
10:23:45 AM
MOUNTAIN:
11:23:45 AM

CENTRAL:
12:23:45 PM

EASTERN:
1:23:45 PM
ATLANTIC:
2:23:45 PM
NEWFOUNDLAND:
2:53:45 PM
 

 


Watches/Warnings
Current Conditions
Radar/Satellite
Lightning Images


Current Weather Conditions For TORONTO PEARSON,ON

 


A Few Clouds
 

Temperature: -9C / 16F
Dew Point: -17C / 1F
Humidity: 52 %
Pressure: 1016.0 mbs (30 inches)
Visibility: 24.1 kms (15 SM)
Wind Direction: ENE (080)
Wind Speed: 22.2 Km/h (13.8 MPH)
Max Wind Gust: 33.4 Km/h (20.7 MPH)
Humidex: N/A
WindChill: -17C
    

Observation Information

Date/Time: Monday, January 26, 2015 @ 18:00Z
Local Time:
Metar Coded: CYYZ 261800Z 08012G18KT 030V090 15SM SCT021 BKN240 M09/M17 A2997 RMK SC4CI3 SLP160

 

 

                   1997-2015 The Ontario Weather Page